createdAt,value
2022-11-18T00:01:38.825Z,97440.82
2022-11-18T00:04:08.001Z,97438.85
2022-11-18T00:06:37.048Z,97431.92
2022-11-18T00:09:05.924Z,97435.22
2022-11-18T00:11:53.244Z,97433.36
2022-11-18T00:14:27.754Z,97434.60
2022-11-18T00:17:00.404Z,97431.52
2022-11-18T00:19:32.141Z,97426.71
2022-11-18T00:22:01.873Z,97422.60
2022-11-18T00:24:31.014Z,97423.11
2022-11-18T00:26:59.771Z,97421.52
2022-11-18T00:29:29.083Z,97428.59
2022-11-18T00:31:58.898Z,97423.96
2022-11-18T00:34:27.581Z,97420.21
2022-11-18T00:36:56.539Z,97414.86
2022-11-18T00:39:26.436Z,97419.38
2022-11-18T00:42:13.760Z,97418.32
2022-11-18T00:44:42.811Z,97424.90
2022-11-18T00:47:11.411Z,97424.59
2022-11-18T00:49:40.310Z,97421.05
2022-11-18T00:52:09.519Z,97418.02
2022-11-18T00:54:38.065Z,97422.59
2022-11-18T00:57:07.097Z,97428.40
2022-11-18T00:59:35.901Z,97425.11
2022-11-18T01:02:04.499Z,97424.08
2022-11-18T01:04:33.657Z,97421.52
2022-11-18T01:07:02.674Z,97419.46
2022-11-18T01:09:32.892Z,97417.39
2022-11-18T01:12:20.239Z,97417.86
2022-11-18T01:14:49.087Z,97410.00
2022-11-18T01:17:17.976Z,97407.90
2022-11-18T01:19:47.228Z,97408.42
2022-11-18T01:22:15.903Z,97402.96
2022-11-18T01:24:44.848Z,97397.50
2022-11-18T01:27:13.612Z,97398.20
2022-11-18T01:29:42.511Z,97399.02
2022-11-18T01:32:24.344Z,97405.82
2022-11-18T01:34:54.523Z,97407.25
2022-11-18T01:37:23.281Z,97413.43
2022-11-18T01:39:51.917Z,97417.86
2022-11-18T01:42:24.283Z,97421.91
2022-11-18T01:45:27.481Z,97421.54
2022-11-18T01:48:18.980Z,97422.35
2022-11-18T01:50:52.593Z,97428.30
2022-11-18T01:53:32.015Z,97429.67
2022-11-18T01:56:04.708Z,97422.00
2022-11-18T01:58:39.756Z,97413.98
2022-11-18T02:01:08.976Z,97420.08
2022-11-18T02:03:39.063Z,97417.61
2022-11-18T02:06:10.639Z,97415.64
2022-11-18T02:08:40.703Z,97413.64
2022-11-18T02:11:35.220Z,97412.72
2022-11-18T02:14:08.294Z,97412.36
2022-11-18T02:17:11.208Z,97408.38
2022-11-18T02:20:13.055Z,97398.12
2022-11-18T02:23:10.040Z,97400.42
2022-11-18T02:26:06.395Z,97399.39
2022-11-18T02:29:09.592Z,97401.58
2022-11-18T02:31:52.815Z,97406.56
2022-11-18T02:34:43.507Z,97403.38
2022-11-18T02:37:24.284Z,97399.29
2022-11-18T02:40:05.076Z,97399.91
2022-11-18T02:42:37.433Z,97401.88
2022-11-18T02:45:11.445Z,97396.77
2022-11-18T02:47:43.547Z,97393.14
2022-11-18T02:50:17.006Z,97390.41
2022-11-18T02:52:47.495Z,97390.96
2022-11-18T02:55:17.746Z,97386.30
2022-11-18T02:57:48.152Z,97387.23
2022-11-18T03:00:17.596Z,97389.46
2022-11-18T03:02:50.416Z,97395.80
2022-11-18T03:05:49.350Z,97394.23
2022-11-18T03:08:26.528Z,97389.47
2022-11-18T03:11:11.518Z,97386.12
2022-11-18T03:13:55.900Z,97386.83
2022-11-18T03:16:32.248Z,97392.52
2022-11-18T03:19:29.612Z,97393.16
2022-11-18T03:22:18.104Z,97392.61
2022-11-18T03:25:01.271Z,97394.96
2022-11-18T03:27:37.373Z,97385.15
2022-11-18T03:30:11.095Z,97383.55
2022-11-18T03:32:44.019Z,97380.42
2022-11-18T03:35:19.854Z,97375.11
2022-11-18T03:37:52.012Z,97378.02
2022-11-18T03:40:25.458Z,97373.44
2022-11-18T03:43:01.352Z,97369.05
2022-11-18T03:45:38.067Z,97366.08
2022-11-18T03:48:29.137Z,97359.18
2022-11-18T03:50:57.936Z,97357.63
2022-11-18T03:53:31.314Z,97355.52
2022-11-18T03:56:08.774Z,97346.88
2022-11-18T03:58:48.257Z,97355.67
2022-11-18T04:01:24.656Z,97360.88
2022-11-18T04:03:53.573Z,97361.20
2022-11-18T04:06:31.791Z,97363.34
2022-11-18T04:09:07.736Z,97369.42
2022-11-18T04:12:05.011Z,97369.14
2022-11-18T04:14:39.785Z,97379.17
2022-11-18T04:17:22.277Z,97383.07
2022-11-18T04:19:51.460Z,97391.76
2022-11-18T04:22:20.509Z,97395.58
2022-11-18T04:24:49.623Z,97402.27
2022-11-18T04:27:18.922Z,97399.38
2022-11-18T04:29:47.483Z,97391.20
2022-11-18T04:32:16.448Z,97391.23
2022-11-18T04:34:45.641Z,97391.92
2022-11-18T04:37:14.342Z,97390.50
2022-11-18T04:39:43.247Z,97401.80
2022-11-18T04:42:12.476Z,97401.95
2022-11-18T04:44:41.309Z,97401.50
2022-11-18T04:47:11.324Z,97398.46
2022-11-18T04:49:40.515Z,97397.83
2022-11-18T04:52:11.429Z,97396.52
2022-11-18T04:54:40.180Z,97398.56
2022-11-18T04:57:09.469Z,97393.66
2022-11-18T04:59:38.283Z,97391.18
2022-11-18T05:02:07.562Z,97395.16
2022-11-18T05:04:36.959Z,97395.15
2022-11-18T05:07:06.400Z,97398.20
2022-11-18T05:09:35.581Z,97402.33
2022-11-18T05:12:23.376Z,97410.08
2022-11-18T05:14:52.079Z,97413.14
2022-11-18T05:17:20.914Z,97415.83
2022-11-18T05:19:49.491Z,97413.98
2022-11-18T05:22:18.832Z,97414.76
2022-11-18T05:24:47.581Z,97410.62
2022-11-18T05:27:16.788Z,97412.92
2022-11-18T05:29:45.950Z,97420.86
2022-11-18T05:32:14.791Z,97422.19
2022-11-18T05:34:43.848Z,97427.36
2022-11-18T05:37:13.413Z,97429.98
2022-11-18T05:39:42.428Z,97431.30
2022-11-18T05:42:29.809Z,97435.16
2022-11-18T05:44:59.133Z,97437.21
2022-11-18T05:47:27.874Z,97437.59
2022-11-18T05:49:57.091Z,97439.89
2022-11-18T05:52:26.241Z,97441.78
2022-11-18T05:54:55.147Z,97443.36
2022-11-18T05:57:24.086Z,97453.63
2022-11-18T05:59:52.969Z,97458.00
2022-11-18T06:02:24.877Z,97463.45
2022-11-18T06:05:01.599Z,97457.77
2022-11-18T06:07:36.270Z,97459.37
2022-11-18T06:10:06.389Z,97466.56
2022-11-18T06:12:42.434Z,97463.32
2022-11-18T06:15:18.915Z,97464.79
2022-11-18T06:18:11.785Z,97467.62
2022-11-18T06:20:41.965Z,97470.52
2022-11-18T06:23:11.717Z,97476.11
2022-11-18T06:25:41.831Z,97478.80
2022-11-18T06:28:14.336Z,97485.34
2022-11-18T06:30:43.542Z,97488.39
2022-11-18T06:33:12.230Z,97488.11
2022-11-18T06:35:42.922Z,97484.32
2022-11-18T06:38:12.032Z,97491.08
2022-11-18T06:40:44.971Z,97494.45
2022-11-18T06:43:32.699Z,97499.88
2022-11-18T06:46:21.767Z,97499.45
2022-11-18T06:48:50.740Z,97502.80
2022-11-18T06:51:20.273Z,97502.94
2022-11-18T06:53:48.967Z,97498.81
2022-11-18T06:56:19.612Z,97494.80
2022-11-18T06:58:53.860Z,97493.39
2022-11-18T07:01:25.635Z,97502.11
2022-11-18T07:03:54.956Z,97499.82
2022-11-18T07:06:25.837Z,97503.86
2022-11-18T07:08:55.475Z,97504.66
2022-11-18T07:11:26.497Z,97503.54
2022-11-18T07:13:55.675Z,97496.73
2022-11-18T07:16:26.508Z,97499.88
2022-11-18T07:18:56.514Z,97506.33
2022-11-18T07:21:27.897Z,97510.71
2022-11-18T07:23:57.313Z,97512.23
2022-11-18T07:26:26.414Z,97516.04
2022-11-18T07:28:55.045Z,97516.94
2022-11-18T07:31:23.918Z,97524.45
2022-11-18T07:33:56.064Z,97525.66
2022-11-18T07:36:34.000Z,97529.30
2022-11-18T07:39:06.897Z,97532.33
2022-11-18T07:41:39.350Z,97536.86
2022-11-18T07:44:08.309Z,97540.33
2022-11-18T07:46:38.209Z,97547.77
2022-11-18T07:49:09.415Z,97541.50
2022-11-18T07:51:40.661Z,97540.18
2022-11-18T07:54:12.242Z,97540.41
2022-11-18T07:56:41.385Z,97541.48
2022-11-18T07:59:10.060Z,97540.98
2022-11-18T08:01:38.801Z,97537.25
2022-11-18T08:04:11.671Z,97543.39
2022-11-18T08:06:40.924Z,97542.46
2022-11-18T08:09:10.498Z,97543.79
2022-11-18T08:11:42.836Z,97549.83
2022-11-18T08:14:11.788Z,97558.39
2022-11-18T08:16:40.310Z,97559.23
2022-11-18T08:19:09.200Z,97557.95
2022-11-18T08:21:38.317Z,97555.45
2022-11-18T08:24:07.253Z,97558.10
2022-11-18T08:26:36.483Z,97560.41
2022-11-18T08:29:05.579Z,97563.39
2022-11-18T08:31:34.196Z,97562.63
2022-11-18T08:34:06.789Z,97564.80
2022-11-18T08:36:38.212Z,97568.41
2022-11-18T08:39:09.385Z,97570.60
2022-11-18T08:41:40.680Z,97575.41
2022-11-18T08:44:13.427Z,97580.48
2022-11-18T08:46:43.333Z,97581.66
2022-11-18T08:49:12.386Z,97582.72
2022-11-18T08:51:41.289Z,97583.98
2022-11-18T08:54:10.160Z,97581.23
2022-11-18T08:56:39.479Z,97585.39
2022-11-18T08:59:09.472Z,97585.84
2022-11-18T09:01:57.572Z,97589.64
2022-11-18T09:04:50.794Z,97588.62
2022-11-18T09:07:20.967Z,97589.52
2022-11-18T09:09:50.802Z,97589.84
2022-11-18T09:12:19.639Z,97593.04
2022-11-18T09:17:37.284Z,97590.89
2022-11-18T09:20:19.108Z,97595.34
2022-11-18T09:22:47.856Z,97594.91
2022-11-18T09:25:17.247Z,97598.13
2022-11-18T09:27:45.847Z,97599.95
2022-11-18T09:30:14.842Z,97599.42
2022-11-18T09:32:43.503Z,97595.69
2022-11-18T09:35:12.136Z,97594.60
2022-11-18T09:37:40.985Z,97596.02
2022-11-18T09:40:19.684Z,97597.02
2022-11-18T09:43:12.817Z,97588.45
2022-11-18T09:45:49.316Z,97589.41
2022-11-18T09:48:21.016Z,97595.07
2022-11-18T09:50:51.053Z,97601.59
2022-11-18T09:53:26.716Z,97606.13
2022-11-18T09:55:56.161Z,97596.25
2022-11-18T09:58:34.642Z,97593.94
2022-11-18T10:01:10.809Z,97591.98
2022-11-18T10:03:41.045Z,97598.09
2022-11-18T10:06:10.384Z,97603.80
2022-11-18T10:09:06.926Z,97604.06
2022-11-18T10:11:51.605Z,97603.77
2022-11-18T10:14:42.957Z,97609.63
2022-11-18T10:17:14.927Z,97609.70
2022-11-18T10:20:05.575Z,97611.60
2022-11-18T10:22:56.965Z,97613.48
2022-11-18T10:25:27.880Z,97615.08
2022-11-18T10:28:01.457Z,97619.16
2022-11-18T10:30:31.600Z,97616.95
2022-11-18T10:33:17.556Z,97620.88
2022-11-18T10:35:46.601Z,97618.64
2022-11-18T10:38:15.867Z,97618.55
2022-11-18T10:40:51.165Z,97615.63
2022-11-18T10:43:53.327Z,97624.60
2022-11-18T10:46:27.819Z,97625.30
2022-11-18T10:49:09.389Z,97627.91
2022-11-18T10:52:04.763Z,97629.52
2022-11-18T10:54:34.674Z,97630.60
2022-11-18T10:57:23.552Z,97629.73
2022-11-18T10:59:58.126Z,97631.80
2022-11-18T11:02:34.183Z,97631.55
2022-11-18T11:05:16.528Z,97631.53
2022-11-18T11:07:45.465Z,97633.23
2022-11-18T11:10:20.938Z,97637.77
2022-11-18T11:12:56.606Z,97637.10
2022-11-18T11:15:36.808Z,97638.25
2022-11-18T11:18:29.424Z,97640.75
2022-11-18T11:20:58.194Z,97640.76
2022-11-18T11:23:27.503Z,97647.40
2022-11-18T11:29:28.027Z,97641.27
2022-11-18T11:32:28.016Z,97647.77
2022-11-18T11:35:26.335Z,97651.64
2022-11-18T11:37:59.451Z,97652.48
2022-11-18T11:40:31.419Z,97654.54
2022-11-18T11:43:32.884Z,97652.27
2022-11-18T11:46:10.648Z,97648.81
2022-11-18T11:48:53.675Z,97645.64
2022-11-18T11:51:46.029Z,97644.68
2022-11-18T11:54:24.343Z,97639.63
2022-11-18T12:00:47.199Z,97651.54
2022-11-18T12:03:21.419Z,97658.95
2022-11-18T12:05:50.099Z,97656.09
2022-11-18T12:08:33.336Z,97658.58
2022-11-18T12:11:08.036Z,97659.73
2022-11-18T12:13:57.570Z,97659.39
2022-11-18T12:16:37.211Z,97671.46
2022-11-18T12:19:12.037Z,97668.77
2022-11-18T12:21:46.854Z,97668.66
2022-11-18T12:24:36.898Z,97672.34
2022-11-18T12:27:37.684Z,97670.42
2022-11-18T12:30:19.243Z,97663.86
2022-11-18T12:32:48.087Z,97668.80
2022-11-18T12:35:31.626Z,97671.16
2022-11-18T12:38:02.507Z,97674.05
2022-11-18T12:40:37.398Z,97677.01
2022-11-18T12:43:46.176Z,97674.81
2022-11-18T12:46:44.393Z,97680.67
2022-11-18T12:49:23.483Z,97685.52
2022-11-18T12:51:58.608Z,97685.48
2022-11-18T12:54:46.713Z,97687.73
2022-11-18T12:57:23.217Z,97686.20
2022-11-18T12:59:52.141Z,97686.73
2022-11-18T13:02:26.310Z,97698.29
2022-11-18T13:05:11.196Z,97698.08
2022-11-18T13:08:13.515Z,97700.13
2022-11-18T13:11:33.266Z,97709.70
2022-11-18T13:14:23.492Z,97708.63
2022-11-18T13:17:10.914Z,97713.35
2022-11-18T13:19:40.106Z,97708.49
2022-11-18T13:22:37.843Z,97708.52
2022-11-18T13:25:22.497Z,97708.40
2022-11-18T13:28:25.280Z,97708.77
2022-11-18T13:31:07.574Z,97717.03
2022-11-18T13:33:39.677Z,97719.73
2022-11-18T13:36:43.751Z,97710.07
2022-11-18T13:39:21.712Z,97711.38
2022-11-18T13:42:16.497Z,97718.71
2022-11-18T13:44:56.350Z,97726.46
2022-11-18T13:47:36.532Z,97719.45
2022-11-18T13:50:28.104Z,97724.15
2022-11-18T13:53:07.956Z,97729.89
2022-11-18T13:55:48.021Z,97736.65
2022-11-18T13:58:20.365Z,97741.61
2022-11-18T14:00:58.207Z,97753.11
2022-11-18T14:03:33.424Z,97755.30
2022-11-18T14:06:02.915Z,97751.55
2022-11-18T14:08:34.259Z,97750.51
2022-11-18T14:11:03.649Z,97752.50
2022-11-18T14:13:35.281Z,97747.78
2022-11-18T14:16:24.079Z,97750.09
2022-11-18T14:18:53.154Z,97756.87
2022-11-18T14:21:29.554Z,97757.64
2022-11-18T14:23:58.560Z,97759.59
2022-11-18T14:26:36.012Z,97770.41
2022-11-18T14:29:23.353Z,97778.54
2022-11-18T14:32:14.273Z,97790.51
2022-11-18T14:34:43.137Z,97798.46
2022-11-18T14:37:13.909Z,97795.95
2022-11-18T14:39:42.633Z,97793.98
2022-11-18T14:42:13.513Z,97795.13
2022-11-18T14:44:42.241Z,97796.64
2022-11-18T14:47:28.977Z,97797.63
2022-11-18T14:49:58.773Z,97800.48
2022-11-18T14:52:29.075Z,97810.48
2022-11-18T14:54:57.837Z,97811.99
2022-11-18T14:57:26.805Z,97808.85
2022-11-18T14:59:55.395Z,97814.80
2022-11-18T15:02:24.263Z,97818.45
2022-11-18T15:04:53.519Z,97820.46
2022-11-18T15:07:24.121Z,97815.02
2022-11-18T15:09:53.113Z,97826.05
2022-11-18T15:12:21.802Z,97828.58
2022-11-18T15:14:50.569Z,97826.24
2022-11-18T15:17:20.459Z,97830.40
2022-11-18T15:19:49.440Z,97829.52
2022-11-18T15:22:18.350Z,97834.55
2022-11-18T15:24:47.103Z,97831.11
2022-11-18T15:27:15.853Z,97833.44
2022-11-18T15:29:45.127Z,97838.87
2022-11-18T15:32:13.743Z,97844.05
2022-11-18T15:34:42.684Z,97845.63
2022-11-18T15:37:12.926Z,97846.27
2022-11-18T15:39:41.554Z,97850.97
2022-11-18T15:42:12.141Z,97850.32
2022-11-18T15:44:40.823Z,97860.02
2022-11-18T15:47:09.901Z,97863.75
2022-11-18T15:49:44.575Z,97865.62
2022-11-18T15:52:13.520Z,97861.49
2022-11-18T15:54:42.357Z,97867.73
2022-11-18T15:57:10.900Z,97872.95
2022-11-18T15:59:40.167Z,97870.25
2022-11-18T16:02:11.338Z,97875.25
2022-11-18T16:04:40.290Z,97879.92
2022-11-18T16:07:09.613Z,97881.21
2022-11-18T16:09:57.211Z,97880.60
2022-11-18T16:12:44.768Z,97882.38
2022-11-18T16:15:33.379Z,97881.16
2022-11-18T16:18:03.668Z,97885.14
2022-11-18T16:20:32.495Z,97889.71
2022-11-18T16:23:01.277Z,97897.59
2022-11-18T16:25:30.464Z,97894.48
2022-11-18T16:28:07.229Z,97899.30
2022-11-18T16:30:56.133Z,97895.20
2022-11-18T16:33:24.761Z,97899.20
2022-11-18T16:35:53.445Z,97901.13
2022-11-18T16:38:22.185Z,97899.41
2022-11-18T16:40:58.405Z,97900.36
2022-11-18T16:43:27.590Z,97902.81
2022-11-18T16:45:56.415Z,97906.20
2022-11-18T16:48:25.751Z,97905.52
2022-11-18T16:51:20.564Z,97911.16
2022-11-18T16:53:53.926Z,97912.84
2022-11-18T16:56:24.481Z,97916.17
2022-11-18T16:59:08.045Z,97920.04
2022-11-18T17:01:36.808Z,97916.45
2022-11-18T17:04:06.392Z,97922.23
2022-11-18T17:06:35.189Z,97919.52
2022-11-18T17:09:04.518Z,97922.77
2022-11-18T17:11:34.129Z,97925.09
2022-11-18T17:14:03.108Z,97922.04
2022-11-18T17:16:31.960Z,97920.52
2022-11-18T17:19:02.208Z,97913.95
2022-11-18T17:21:33.701Z,97914.11
2022-11-18T17:24:05.470Z,97923.34
2022-11-18T17:26:34.767Z,97927.35
2022-11-18T17:29:03.955Z,97933.27
2022-11-18T17:31:33.484Z,97936.05
2022-11-18T17:34:02.518Z,97942.27
2022-11-18T17:36:31.219Z,97938.62
2022-11-18T17:39:01.069Z,97941.43
2022-11-18T17:41:49.277Z,97940.21
2022-11-18T17:44:19.019Z,97940.60
2022-11-18T17:46:47.990Z,97942.52
2022-11-18T17:49:18.635Z,97950.31
2022-11-18T17:51:48.097Z,97959.09
2022-11-18T17:54:17.111Z,97958.46
2022-11-18T17:56:47.639Z,97955.59
2022-11-18T17:59:17.689Z,97955.26
2022-11-18T18:01:46.514Z,97960.08
2022-11-18T18:04:31.387Z,97962.84
2022-11-18T18:07:29.753Z,97958.35
2022-11-18T18:10:30.814Z,97956.96
2022-11-18T18:13:44.727Z,97963.14
2022-11-18T18:16:34.640Z,97972.36
2022-11-18T18:19:28.313Z,97972.88
2022-11-18T18:22:14.353Z,97982.85
2022-11-18T18:25:08.274Z,97992.45
2022-11-18T18:27:54.102Z,97998.77
2022-11-18T18:30:52.626Z,97999.96
2022-11-18T18:33:58.309Z,97995.06
2022-11-18T18:36:48.433Z,97999.62
2022-11-18T18:39:34.052Z,98000.14
2022-11-18T18:42:14.609Z,97992.77
2022-11-18T18:45:22.064Z,97989.74
2022-11-18T18:48:06.040Z,97995.39
2022-11-18T18:50:35.080Z,97993.27
2022-11-18T18:53:03.731Z,98002.10
2022-11-18T18:55:32.419Z,98000.14
2022-11-18T18:58:01.291Z,97996.71
2022-11-18T19:00:30.147Z,98001.31
2022-11-18T19:02:58.998Z,97997.06
2022-11-18T19:06:03.251Z,97995.56
2022-11-18T19:08:19.731Z,98001.92
2022-11-18T19:10:48.678Z,98006.50
2022-11-18T19:13:17.266Z,98007.05
2022-11-18T19:15:46.264Z,98016.04
2022-11-18T19:18:15.311Z,98016.27
2022-11-18T19:20:44.212Z,98016.60
2022-11-18T19:23:18.087Z,98014.39
2022-11-18T19:25:46.971Z,98010.39
2022-11-18T19:28:16.113Z,98018.00
2022-11-18T19:30:45.119Z,98021.42
2022-11-18T19:33:13.691Z,98016.61
2022-11-18T19:35:42.589Z,98018.14
2022-11-18T19:38:11.626Z,98021.27
2022-11-18T19:40:40.233Z,98021.77
2022-11-18T19:43:09.044Z,98014.75
2022-11-18T19:45:38.081Z,98013.95
2022-11-18T19:48:06.683Z,98020.05
2022-11-18T19:50:35.301Z,98023.27
2022-11-18T19:53:24.417Z,98030.20
2022-11-18T19:55:55.164Z,98035.55
2022-11-18T19:58:24.886Z,98038.74
2022-11-18T20:00:54.093Z,98046.35
2022-11-18T20:03:22.740Z,98048.10
2022-11-18T20:05:55.010Z,98049.66
2022-11-18T20:08:25.373Z,98047.86
2022-11-18T20:10:54.052Z,98047.41
2022-11-18T20:13:22.887Z,98048.27
2022-11-18T20:15:51.727Z,98045.92
2022-11-18T20:18:22.471Z,98046.40
2022-11-18T20:20:51.508Z,98047.73
2022-11-18T20:23:20.288Z,98044.93
2022-11-18T20:25:49.377Z,98049.63
2022-11-18T20:28:18.585Z,98045.10
2022-11-18T20:30:47.525Z,98045.28
2022-11-18T20:33:16.121Z,98043.41
2022-11-18T20:35:45.239Z,98048.17
2022-11-18T20:38:13.943Z,98052.09
2022-11-18T20:40:42.515Z,98055.85
2022-11-18T20:43:14.661Z,98060.27
2022-11-18T20:45:46.314Z,98062.35
2022-11-18T20:48:15.163Z,98070.04
2022-11-18T20:50:44.110Z,98066.54
2022-11-18T20:53:12.911Z,98066.91
2022-11-18T20:55:41.772Z,98067.59
2022-11-18T20:58:10.643Z,98072.27
2022-11-18T21:00:39.958Z,98072.52
2022-11-18T21:03:08.798Z,98070.30
2022-11-18T21:05:37.767Z,98075.50
2022-11-18T21:08:08.005Z,98073.36
2022-11-18T21:10:37.522Z,98075.17
2022-11-18T21:13:26.471Z,98078.31
2022-11-18T21:15:55.411Z,98081.77
2022-11-18T21:18:23.978Z,98084.16
2022-11-18T21:21:16.312Z,98083.29
2022-11-18T21:23:45.365Z,98082.14
2022-11-18T21:26:14.627Z,98083.60
2022-11-18T21:28:43.366Z,98091.69
2022-11-18T21:31:12.355Z,98092.54
2022-11-18T21:33:41.066Z,98091.98
2022-11-18T21:36:10.649Z,98089.81
2022-11-18T21:38:39.636Z,98090.52
2022-11-18T21:41:09.262Z,98090.73
2022-11-18T21:46:28.054Z,98092.50
2022-11-18T21:49:00.401Z,98092.83
2022-11-18T21:51:32.323Z,98093.25
2022-11-18T21:54:01.735Z,98098.41
2022-11-18T21:56:31.557Z,98101.86
2022-11-18T21:59:02.240Z,98099.31
2022-11-18T22:01:33.760Z,98102.38
2022-11-18T22:04:05.179Z,98103.65
2022-11-18T22:06:35.007Z,98105.08
2022-11-18T22:09:04.387Z,98108.49
2022-11-18T22:11:32.997Z,98109.80
2022-11-18T22:14:02.359Z,98103.88
2022-11-18T22:16:31.494Z,98105.56
2022-11-18T22:19:04.984Z,98109.46
2022-11-18T22:21:37.333Z,98110.30
2022-11-18T22:24:06.246Z,98106.00
2022-11-18T22:26:35.016Z,98107.92
2022-11-18T22:29:04.109Z,98110.16
2022-11-18T22:31:33.206Z,98111.77
2022-11-18T22:34:01.685Z,98116.06
2022-11-18T22:36:32.438Z,98117.09
2022-11-18T22:39:01.373Z,98112.67
2022-11-18T22:41:49.597Z,98117.15
2022-11-18T22:44:18.868Z,98119.98
2022-11-18T22:46:47.510Z,98116.52
2022-11-18T22:49:16.261Z,98124.73
2022-11-18T22:51:45.026Z,98122.29
2022-11-18T22:54:37.801Z,98122.92
2022-11-18T22:57:02.966Z,98128.23
2022-11-18T22:59:31.826Z,98132.20
2022-11-18T23:02:02.003Z,98133.13
2022-11-18T23:04:31.197Z,98138.20
2022-11-18T23:06:59.875Z,98137.08
2022-11-18T23:09:28.653Z,98141.63
2022-11-18T23:12:16.544Z,98145.50
2022-11-18T23:14:45.666Z,98143.20
2022-11-18T23:17:16.192Z,98148.26
2022-11-18T23:19:44.937Z,98148.94
2022-11-18T23:22:13.959Z,98153.07
2022-11-18T23:24:42.957Z,98155.82
2022-11-18T23:27:12.131Z,98160.02
2022-11-18T23:29:40.780Z,98156.75
2022-11-18T23:32:10.004Z,98156.92
2022-11-18T23:34:38.936Z,98156.42
2022-11-18T23:37:07.498Z,98159.45
2022-11-18T23:39:37.605Z,98161.15
2022-11-18T23:42:06.402Z,98158.95
2022-11-18T23:44:47.142Z,98162.86
2022-11-18T23:47:16.848Z,98157.81
2022-11-18T23:49:45.675Z,98161.60
2022-11-18T23:52:15.220Z,98153.47
2022-11-18T23:54:43.956Z,98149.55
2022-11-18T23:57:12.663Z,98152.40
2022-11-18T23:59:42.277Z,98157.52
